createdAt,value
2023-01-01T00:08:24.182Z,984.66
2023-01-01T00:20:26.654Z,984.57
2023-01-01T00:32:25.108Z,984.69
2023-01-01T00:44:25.471Z,984.71
2023-01-01T00:56:26.008Z,984.84
2023-01-01T01:08:30.668Z,984.94
2023-01-01T01:20:26.858Z,984.92
2023-01-01T01:32:27.303Z,984.78
2023-01-01T01:44:27.756Z,984.55
2023-01-01T01:56:28.190Z,984.61
2023-01-01T02:08:28.649Z,984.44
2023-01-01T02:20:29.097Z,984.31
2023-01-01T02:32:29.650Z,984.28
2023-01-01T02:44:30.056Z,984.20
2023-01-01T02:56:30.591Z,983.96
2023-01-01T03:08:30.927Z,984.08
2023-01-01T03:20:31.677Z,984.02
2023-01-01T03:32:31.829Z,983.93
2023-01-01T03:44:32.253Z,984.09
2023-01-01T03:56:32.712Z,984.20
2023-01-01T04:08:33.227Z,984.37
2023-01-01T04:20:33.640Z,984.07
2023-01-01T04:32:34.113Z,984.08
2023-01-01T04:44:34.554Z,983.99
2023-01-01T04:56:35.033Z,984.24
2023-01-01T05:08:35.459Z,984.54
2023-01-01T05:20:35.881Z,984.55
2023-01-01T05:32:36.325Z,984.63
2023-01-01T05:44:36.798Z,984.75
2023-01-01T05:56:37.227Z,984.71
2023-01-01T06:08:37.706Z,984.95
2023-01-01T06:20:38.125Z,985.14
2023-01-01T06:32:38.663Z,985.23
2023-01-01T06:44:39.055Z,985.38
2023-01-01T06:56:39.490Z,985.44
2023-01-01T07:08:39.984Z,985.48
2023-01-01T07:20:40.434Z,985.70
2023-01-01T07:32:40.866Z,986.01
2023-01-01T07:44:41.284Z,986.02
2023-01-01T07:56:41.768Z,986.16
2023-01-01T08:08:42.235Z,986.47
2023-01-01T08:20:42.693Z,986.59
2023-01-01T08:32:43.138Z,986.55
2023-01-01T08:44:43.571Z,986.58
2023-01-01T08:56:44.041Z,986.66
2023-01-01T09:08:44.492Z,986.68
2023-01-01T09:20:44.950Z,986.61
2023-01-01T09:32:45.361Z,986.65
2023-01-01T09:44:45.857Z,986.53
2023-01-01T09:56:46.269Z,986.41
2023-01-01T10:08:46.736Z,986.36
2023-01-01T10:20:47.198Z,986.44
2023-01-01T10:32:47.665Z,986.45
2023-01-01T10:44:48.121Z,986.47
2023-01-01T10:56:48.559Z,986.36
2023-01-01T11:08:49.047Z,986.56
2023-01-01T11:20:49.524Z,986.64
2023-01-01T11:32:55.207Z,986.44
2023-01-01T11:44:50.397Z,986.54
2023-01-01T11:56:50.886Z,986.54
2023-01-01T12:08:51.360Z,986.38
2023-01-01T12:20:51.748Z,986.39
2023-01-01T12:32:52.233Z,986.27
2023-01-01T12:44:52.700Z,986.39
2023-01-01T12:56:53.153Z,986.49
2023-01-01T13:08:53.610Z,986.59
2023-01-01T13:20:54.053Z,986.44
2023-01-01T13:32:54.505Z,986.56
2023-01-01T13:44:54.959Z,986.56
2023-01-01T13:56:55.411Z,986.59
2023-01-01T14:08:55.877Z,986.77
2023-01-01T14:20:56.311Z,986.90
2023-01-01T14:32:56.767Z,986.95
2023-01-01T14:44:57.226Z,986.91
2023-01-01T14:56:57.648Z,987.16
2023-01-01T15:08:58.142Z,987.17
2023-01-01T15:20:58.573Z,987.35
2023-01-01T15:32:59.016Z,987.30
2023-01-01T15:44:59.482Z,987.19
2023-01-01T15:56:59.947Z,987.30
2023-01-01T16:09:00.417Z,987.38
2023-01-01T16:21:00.859Z,987.57
2023-01-01T16:33:01.303Z,987.80
2023-01-01T16:45:01.731Z,987.90
2023-01-01T16:57:02.250Z,987.99
2023-01-01T17:09:02.622Z,987.86
2023-01-01T17:21:03.135Z,987.97
2023-01-01T17:33:03.648Z,988.04
2023-01-01T17:45:04.049Z,988.03
2023-01-01T17:57:04.459Z,987.98
2023-01-01T18:09:04.899Z,988.09
2023-01-01T18:21:05.371Z,988.05
2023-01-01T18:33:05.824Z,987.94
2023-01-01T18:45:06.254Z,987.96
2023-01-01T18:57:06.699Z,987.99
2023-01-01T19:09:07.178Z,988.10
2023-01-01T19:21:07.664Z,988.10
2023-01-01T19:33:08.087Z,988.11
2023-01-01T19:45:08.590Z,988.03
2023-01-01T19:57:09.001Z,988.10
2023-01-01T20:09:09.440Z,988.10
2023-01-01T20:21:09.905Z,987.98
2023-01-01T20:33:10.423Z,987.90
2023-01-01T20:45:10.819Z,988.01
2023-01-01T20:57:11.287Z,987.87
2023-01-01T21:09:11.695Z,987.86
2023-01-01T21:21:12.141Z,987.62
2023-01-01T21:33:12.578Z,987.55
2023-01-01T21:45:13.064Z,987.66
2023-01-01T21:57:13.500Z,987.62
2023-01-01T22:09:13.942Z,987.52
2023-01-01T22:21:14.396Z,987.42
2023-01-01T22:33:14.868Z,987.35
2023-01-01T22:45:15.279Z,987.42
2023-01-01T22:57:15.739Z,987.48
2023-01-01T23:09:16.263Z,987.31
2023-01-01T23:21:21.385Z,987.21
2023-01-01T23:33:17.130Z,987.00
2023-01-01T23:45:17.584Z,986.94
2023-01-01T23:57:18.028Z,986.86
